createdAt,value
2023-02-13T00:01:19.476Z,84.50
2023-02-13T00:03:50.868Z,81.20
2023-02-13T00:06:21.456Z,86.00
2023-02-13T00:08:52.550Z,78.40
2023-02-13T00:11:23.241Z,82.40
2023-02-13T00:13:54.330Z,96.80
2023-02-13T00:16:24.999Z,89.20
2023-02-13T00:18:56.246Z,87.40
2023-02-13T00:21:26.882Z,90.60
2023-02-13T00:23:57.755Z,89.80
2023-02-13T00:26:28.347Z,89.60
2023-02-13T00:29:01.352Z,85.00
2023-02-13T00:31:32.181Z,91.50
2023-02-13T00:34:03.561Z,87.90
2023-02-13T00:36:34.249Z,91.10
2023-02-13T00:39:05.504Z,92.30
2023-02-13T00:41:36.021Z,88.60
2023-02-13T00:44:07.306Z,83.80
2023-02-13T00:46:39.180Z,88.20
2023-02-13T00:49:10.464Z,95.50
2023-02-13T00:51:41.068Z,92.70
2023-02-13T00:54:12.429Z,93.50
2023-02-13T00:56:43.376Z,90.50
2023-02-13T00:59:14.479Z,92.70
2023-02-13T01:01:45.063Z,91.90
2023-02-13T01:04:16.218Z,91.80
2023-02-13T01:06:46.829Z,96.30
2023-02-13T01:09:17.967Z,82.90
2023-02-13T01:11:48.597Z,94.80
2023-02-13T01:14:19.549Z,89.70
2023-02-13T01:16:51.401Z,97.50
2023-02-13T01:19:22.555Z,100.60
2023-02-13T01:21:53.021Z,102.10
2023-02-13T01:24:24.170Z,97.70
2023-02-13T01:26:55.460Z,96.50
2023-02-13T01:29:26.562Z,99.00
2023-02-13T01:31:57.164Z,101.10
2023-02-13T01:34:33.053Z,118.60
2023-02-13T01:37:03.816Z,112.10
2023-02-13T01:39:35.007Z,110.30
2023-02-13T01:42:06.216Z,110.10
2023-02-13T01:44:50.707Z,109.60
2023-02-13T01:47:23.589Z,120.00
2023-02-13T01:49:57.600Z,114.40
2023-02-13T01:52:28.279Z,115.70
2023-02-13T01:54:59.934Z,115.10
2023-02-13T01:57:32.407Z,113.10
2023-02-13T02:00:07.405Z,109.80
2023-02-13T02:02:50.186Z,103.00
2023-02-13T02:05:23.407Z,104.20
2023-02-13T02:07:54.696Z,117.40
2023-02-13T02:10:27.690Z,110.00
2023-02-13T02:13:03.133Z,101.50
2023-02-13T02:15:35.238Z,96.20
2023-02-13T02:18:07.626Z,107.80
2023-02-13T02:20:49.718Z,91.10
2023-02-13T02:23:31.870Z,99.70
2023-02-13T02:26:19.065Z,116.20
2023-02-13T02:28:58.043Z,115.50
2023-02-13T02:31:47.630Z,106.20
2023-02-13T02:34:24.468Z,104.10
2023-02-13T02:37:02.690Z,107.60
2023-02-13T02:39:41.409Z,103.40
2023-02-13T02:42:18.368Z,103.70
2023-02-13T02:44:54.069Z,97.50
2023-02-13T02:47:44.341Z,114.30
2023-02-13T02:50:17.679Z,109.00
2023-02-13T02:55:22.169Z,96.60
2023-02-13T02:58:15.198Z,101.10
2023-02-13T03:01:03.431Z,104.10
2023-02-13T03:03:53.941Z,112.70
2023-02-13T03:06:26.385Z,106.90
2023-02-13T03:09:16.766Z,104.60
2023-02-13T03:12:08.011Z,106.10
2023-02-13T03:14:39.516Z,99.90
2023-02-13T03:17:30.311Z,109.00
2023-02-13T03:20:22.813Z,112.50
2023-02-13T03:22:59.697Z,111.60
2023-02-13T03:25:34.629Z,111.90
2023-02-13T03:28:26.987Z,103.40
2023-02-13T03:31:07.713Z,104.30
2023-02-13T03:33:44.192Z,101.50
2023-02-13T03:36:40.843Z,95.70
2023-02-13T03:39:13.622Z,102.20
2023-02-13T03:41:47.216Z,97.60
2023-02-13T03:44:21.028Z,94.20
2023-02-13T03:46:52.995Z,94.70
2023-02-13T03:49:49.221Z,82.80
2023-02-13T03:52:23.902Z,84.40
2023-02-13T03:55:15.166Z,87.90
2023-02-13T03:58:04.118Z,88.10
2023-02-13T04:00:37.866Z,86.70
2023-02-13T04:03:11.054Z,84.80
2023-02-13T04:05:44.412Z,78.80
2023-02-13T04:10:48.282Z,78.40
2023-02-13T04:13:20.286Z,81.60
2023-02-13T04:15:52.967Z,83.40
2023-02-13T04:18:24.619Z,72.20
2023-02-13T04:20:55.859Z,79.30
2023-02-13T04:23:27.009Z,82.90
2023-02-13T04:25:58.464Z,72.30
2023-02-13T04:28:29.510Z,77.60
2023-02-13T04:31:00.612Z,79.20
2023-02-13T04:33:31.839Z,79.60
2023-02-13T04:36:03.063Z,78.10
2023-02-13T04:38:34.175Z,76.20
2023-02-13T04:41:04.788Z,77.40
2023-02-13T04:43:35.578Z,76.80
2023-02-13T04:46:06.757Z,75.20
2023-02-13T04:48:38.873Z,74.20
2023-02-13T04:51:09.592Z,77.90
2023-02-13T04:53:41.044Z,66.40
2023-02-13T04:56:12.105Z,71.70
2023-02-13T04:58:43.421Z,66.90
2023-02-13T05:01:15.280Z,62.80
2023-02-13T05:03:46.115Z,70.80
2023-02-13T05:06:17.461Z,68.20
2023-02-13T05:08:48.552Z,73.80
2023-02-13T05:11:21.283Z,70.90
2023-02-13T05:13:52.849Z,64.40
2023-02-13T05:16:23.770Z,62.00
2023-02-13T05:18:55.385Z,67.10
2023-02-13T05:21:58.601Z,64.90
2023-02-13T05:24:29.471Z,59.30
2023-02-13T05:27:00.305Z,60.40
2023-02-13T05:29:31.540Z,55.60
2023-02-13T05:32:02.660Z,58.30
2023-02-13T05:34:33.876Z,58.10
2023-02-13T05:37:05.508Z,57.00
2023-02-13T05:39:36.314Z,65.20
2023-02-13T05:42:07.036Z,62.50
2023-02-13T05:44:37.749Z,57.50
2023-02-13T05:47:08.927Z,58.10
2023-02-13T05:49:39.981Z,60.00
2023-02-13T05:52:11.109Z,59.30
2023-02-13T05:54:41.850Z,57.70
2023-02-13T05:57:12.684Z,67.70
2023-02-13T05:59:43.537Z,59.90
2023-02-13T06:02:14.343Z,63.00
2023-02-13T06:04:45.602Z,66.80
2023-02-13T06:07:16.390Z,65.30
2023-02-13T06:09:47.160Z,65.80
2023-02-13T06:12:17.844Z,65.80
2023-02-13T06:14:48.827Z,63.30
2023-02-13T06:17:19.718Z,67.30
2023-02-13T06:19:50.438Z,64.90
2023-02-13T06:22:21.218Z,66.80
2023-02-13T06:24:51.966Z,67.20
2023-02-13T06:27:22.762Z,65.70
2023-02-13T06:29:53.600Z,59.90
2023-02-13T06:32:25.490Z,64.20
2023-02-13T06:34:56.332Z,66.00
2023-02-13T06:37:27.267Z,63.70
2023-02-13T06:39:58.104Z,64.60
2023-02-13T06:42:28.944Z,60.20
2023-02-13T06:44:59.750Z,70.90
2023-02-13T06:47:30.529Z,62.00
2023-02-13T06:50:01.180Z,56.70
2023-02-13T06:52:32.166Z,59.50
2023-02-13T06:55:03.018Z,57.30
2023-02-13T06:57:34.329Z,53.80
2023-02-13T07:00:06.228Z,55.60
2023-02-13T07:02:38.579Z,54.30
2023-02-13T07:05:10.286Z,50.30
2023-02-13T07:07:41.794Z,56.90
2023-02-13T07:10:14.102Z,53.30
2023-02-13T07:12:47.409Z,58.60
2023-02-13T07:15:24.869Z,58.30
2023-02-13T07:17:58.782Z,48.40
2023-02-13T07:20:30.379Z,50.60
2023-02-13T07:23:01.288Z,56.60
2023-02-13T07:25:32.659Z,59.60
2023-02-13T07:28:07.693Z,61.40
2023-02-13T07:30:39.026Z,60.60
2023-02-13T07:33:12.802Z,58.20
2023-02-13T07:35:49.202Z,61.70
2023-02-13T07:38:20.493Z,58.10
2023-02-13T07:40:52.060Z,61.30
2023-02-13T07:43:22.896Z,59.60
2023-02-13T07:45:56.887Z,56.20
2023-02-13T07:48:28.452Z,56.60
2023-02-13T07:51:02.921Z,61.40
2023-02-13T07:53:33.928Z,64.80
2023-02-13T07:56:08.208Z,63.90
2023-02-13T07:58:40.204Z,65.40
2023-02-13T08:01:11.824Z,54.90
2023-02-13T08:03:42.826Z,61.80
2023-02-13T08:06:13.743Z,56.80
2023-02-13T08:08:45.494Z,65.80
2023-02-13T08:11:42.126Z,65.80
2023-02-13T08:14:13.282Z,63.10
2023-02-13T08:16:46.072Z,55.80
2023-02-13T08:19:16.762Z,65.30
2023-02-13T08:21:47.747Z,62.40
2023-02-13T08:24:18.807Z,55.70
2023-02-13T08:26:49.736Z,60.10
2023-02-13T08:29:20.779Z,59.60
2023-02-13T08:31:51.768Z,58.80
2023-02-13T08:34:22.622Z,56.80
2023-02-13T08:36:53.755Z,60.00
2023-02-13T08:39:24.546Z,55.60
2023-02-13T08:41:55.323Z,52.10
2023-02-13T08:44:26.151Z,54.50
2023-02-13T08:46:57.216Z,54.10
2023-02-13T08:49:28.243Z,48.80
2023-02-13T08:51:59.069Z,55.40
2023-02-13T08:54:30.113Z,51.90
2023-02-13T08:57:01.050Z,54.10
2023-02-13T08:59:31.880Z,45.50
2023-02-13T09:02:03.042Z,49.00
2023-02-13T09:04:34.879Z,54.00
2023-02-13T09:07:06.364Z,50.40
2023-02-13T09:09:37.587Z,46.00
2023-02-13T09:12:09.282Z,46.10
2023-02-13T09:14:40.845Z,53.70
2023-02-13T09:17:11.824Z,42.10
2023-02-13T09:19:42.601Z,45.70
2023-02-13T09:22:13.570Z,43.10
2023-02-13T09:24:44.549Z,43.40
2023-02-13T09:27:15.487Z,41.70
2023-02-13T09:29:46.628Z,48.70
2023-02-13T09:32:18.479Z,45.80
2023-02-13T09:34:51.372Z,43.70
2023-02-13T09:37:23.331Z,44.20
2023-02-13T09:39:54.931Z,44.60
2023-02-13T09:42:27.764Z,52.70
2023-02-13T09:45:00.350Z,42.90
2023-02-13T09:47:32.928Z,45.00
2023-02-13T09:50:06.014Z,48.90
2023-02-13T09:55:12.774Z,41.60
2023-02-13T09:57:45.213Z,42.90
2023-02-13T10:00:21.218Z,49.60
2023-02-13T10:02:55.917Z,43.30
2023-02-13T10:05:32.888Z,52.60
2023-02-13T10:08:08.108Z,43.90
2023-02-13T10:10:44.928Z,44.90
2023-02-13T10:13:24.295Z,44.00
2023-02-13T10:16:01.521Z,43.90
2023-02-13T10:18:36.506Z,45.70
2023-02-13T10:21:08.955Z,48.30
2023-02-13T10:23:44.007Z,44.00
2023-02-13T10:26:19.946Z,40.90
2023-02-13T10:29:09.811Z,42.90
2023-02-13T10:31:47.057Z,38.60
2023-02-13T10:34:23.710Z,40.40
2023-02-13T10:36:58.837Z,39.30
2023-02-13T10:39:31.141Z,37.10
2023-02-13T10:42:09.124Z,39.90
2023-02-13T10:47:43.454Z,35.80
2023-02-13T10:50:22.596Z,35.40
2023-02-13T10:52:57.833Z,41.00
2023-02-13T10:55:42.390Z,34.70
2023-02-13T10:58:17.107Z,34.70
2023-02-13T11:00:50.393Z,33.90
2023-02-13T11:03:22.576Z,27.40
2023-02-13T11:05:59.798Z,28.20
2023-02-13T11:08:33.220Z,26.50
2023-02-13T11:11:04.007Z,33.00
2023-02-13T11:13:35.011Z,25.70
2023-02-13T11:16:07.060Z,29.90
2023-02-13T11:18:40.983Z,26.60
2023-02-13T11:21:12.745Z,25.60
2023-02-13T11:23:45.733Z,21.80
2023-02-13T11:26:22.927Z,21.80
2023-02-13T11:28:55.927Z,28.60
2023-02-13T11:31:30.485Z,20.20
2023-02-13T11:34:19.073Z,20.90
2023-02-13T11:36:52.810Z,19.90
2023-02-13T11:39:24.889Z,17.50
2023-02-13T11:41:55.882Z,19.10
2023-02-13T11:44:28.624Z,21.10
2023-02-13T11:47:00.883Z,19.70
2023-02-13T11:49:33.770Z,20.00
2023-02-13T11:52:05.984Z,22.70
2023-02-13T11:54:38.608Z,18.00
2023-02-13T11:57:20.732Z,20.70
2023-02-13T11:59:52.220Z,18.80
2023-02-13T12:02:24.216Z,18.30
2023-02-13T12:04:56.038Z,18.60
2023-02-13T12:07:29.191Z,16.90
2023-02-13T12:10:07.847Z,16.80
2023-02-13T12:12:44.217Z,16.00
2023-02-13T12:15:18.533Z,14.40
2023-02-13T12:17:52.344Z,16.60
2023-02-13T12:20:23.012Z,15.50
2023-02-13T12:23:01.285Z,14.80
2023-02-13T12:25:44.034Z,16.60
2023-02-13T12:28:16.324Z,14.80
2023-02-13T12:31:01.330Z,17.20
2023-02-13T12:33:41.413Z,14.60
2023-02-13T12:36:16.516Z,14.30
2023-02-13T12:38:59.136Z,14.90
2023-02-13T12:41:32.738Z,11.50
2023-02-13T12:44:18.346Z,14.30
2023-02-13T12:46:53.916Z,16.20
2023-02-13T12:49:35.950Z,16.50
2023-02-13T12:52:17.046Z,15.50
2023-02-13T12:54:52.896Z,14.40
2023-02-13T12:57:30.171Z,17.60
2023-02-13T13:00:11.277Z,12.70
2023-02-13T13:02:49.151Z,11.40
2023-02-13T13:05:27.767Z,11.20
2023-02-13T13:08:05.600Z,13.00
2023-02-13T13:10:41.321Z,12.70
2023-02-13T13:13:16.760Z,11.90
2023-02-13T13:15:51.008Z,13.10
2023-02-13T13:18:27.567Z,12.20
2023-02-13T13:21:03.976Z,11.30
2023-02-13T13:23:36.671Z,16.70
2023-02-13T13:28:39.095Z,12.90
2023-02-13T13:31:10.950Z,15.80
2023-02-13T13:33:43.962Z,14.60
2023-02-13T13:36:18.248Z,15.40
2023-02-13T13:38:55.320Z,16.50
2023-02-13T13:41:30.471Z,16.30
2023-02-13T13:44:07.642Z,18.10
2023-02-13T13:46:45.603Z,15.30
2023-02-13T13:49:21.724Z,17.30
2023-02-13T13:51:53.824Z,18.60
2023-02-13T13:54:35.736Z,17.30
2023-02-13T13:57:12.618Z,17.90
2023-02-13T14:00:00.269Z,17.80
2023-02-13T14:02:45.177Z,23.30
2023-02-13T14:05:24.075Z,17.80
2023-02-13T14:07:57.123Z,18.80
2023-02-13T14:10:53.409Z,17.80
2023-02-13T14:13:32.444Z,22.30
2023-02-13T14:16:03.657Z,19.30
2023-02-13T14:18:44.331Z,18.20
2023-02-13T14:21:23.884Z,23.90
2023-02-13T14:23:55.153Z,19.40
2023-02-13T14:26:36.900Z,21.10
2023-02-13T14:29:21.239Z,26.60
2023-02-13T14:32:00.383Z,22.10
2023-02-13T14:34:33.661Z,23.40
2023-02-13T14:39:35.722Z,21.90
2023-02-13T14:42:22.695Z,21.80
2023-02-13T14:44:55.845Z,23.40
2023-02-13T14:47:30.407Z,20.60
2023-02-13T14:50:02.532Z,18.60
2023-02-13T14:52:35.994Z,19.50
2023-02-13T14:55:09.792Z,21.10
2023-02-13T14:57:44.107Z,22.00
2023-02-13T15:00:21.039Z,20.50
2023-02-13T15:02:59.653Z,17.60
2023-02-13T15:05:37.616Z,20.50
2023-02-13T15:08:14.637Z,20.30
2023-02-13T15:10:47.301Z,20.00
2023-02-13T15:13:20.317Z,19.20
2023-02-13T15:15:54.602Z,22.30
2023-02-13T15:18:26.741Z,23.60
2023-02-13T15:21:00.162Z,19.50
2023-02-13T15:23:32.702Z,24.30
2023-02-13T15:26:04.297Z,17.20
2023-02-13T15:28:39.040Z,21.40
2023-02-13T15:31:25.482Z,18.40
2023-02-13T15:33:58.742Z,24.10
2023-02-13T15:36:35.827Z,21.40
2023-02-13T15:39:10.651Z,20.10
2023-02-13T15:41:43.058Z,18.70
2023-02-13T15:44:18.773Z,15.80
2023-02-13T15:46:51.637Z,17.40
2023-02-13T15:49:24.115Z,18.70
2023-02-13T15:52:05.062Z,20.20
2023-02-13T15:54:37.118Z,19.90
2023-02-13T15:57:08.020Z,17.20
2023-02-13T15:59:40.214Z,19.90
2023-02-13T16:02:16.132Z,19.00
2023-02-13T16:04:52.982Z,17.00
2023-02-13T16:07:23.752Z,17.40
2023-02-13T16:10:15.646Z,17.70
2023-02-13T16:12:50.729Z,18.80
2023-02-13T16:15:22.762Z,17.20
2023-02-13T16:17:53.503Z,15.80
2023-02-13T16:20:26.325Z,16.00
2023-02-13T16:22:59.333Z,18.00
2023-02-13T16:25:32.295Z,15.80
2023-02-13T16:28:19.556Z,14.40
2023-02-13T16:30:54.120Z,11.40
2023-02-13T16:33:28.609Z,14.00
2023-02-13T16:36:24.156Z,12.20
2023-02-13T16:38:59.134Z,12.00
2023-02-13T16:41:42.693Z,10.40
2023-02-13T16:44:25.038Z,8.90
2023-02-13T16:47:05.865Z,8.60
2023-02-13T16:49:37.892Z,8.10
2023-02-13T16:52:13.343Z,9.50
2023-02-13T16:54:58.625Z,8.90
2023-02-13T16:57:36.341Z,9.60
2023-02-13T17:00:18.739Z,10.80
2023-02-13T17:02:53.930Z,9.10
2023-02-13T17:05:26.052Z,10.50
2023-02-13T17:08:06.610Z,9.60
2023-02-13T17:10:42.786Z,10.50
2023-02-13T17:13:17.909Z,13.10
2023-02-13T17:15:49.511Z,13.50
2023-02-13T17:18:20.729Z,11.60
2023-02-13T17:20:51.683Z,11.80
2023-02-13T17:23:24.330Z,13.70
2023-02-13T17:25:55.407Z,15.10
2023-02-13T17:28:31.272Z,15.50
2023-02-13T17:31:02.704Z,13.10
2023-02-13T17:33:35.259Z,12.30
2023-02-13T17:36:07.143Z,13.30
2023-02-13T17:38:38.256Z,13.60
2023-02-13T17:41:13.358Z,15.00
2023-02-13T17:43:49.083Z,14.30
2023-02-13T17:46:20.755Z,13.80
2023-02-13T17:48:51.516Z,15.30
2023-02-13T17:51:30.850Z,14.00
2023-02-13T17:54:07.466Z,13.90
2023-02-13T17:56:42.713Z,15.50
2023-02-13T17:59:13.837Z,13.90
2023-02-13T18:01:44.878Z,14.80
2023-02-13T18:04:15.744Z,11.00
2023-02-13T18:06:47.130Z,10.90
2023-02-13T18:09:26.461Z,13.50
2023-02-13T18:12:05.591Z,12.50
2023-02-13T18:14:37.502Z,14.20
2023-02-13T18:17:13.889Z,14.80
2023-02-13T18:19:45.161Z,11.90
2023-02-13T18:22:16.228Z,17.10
2023-02-13T18:24:51.949Z,15.80
2023-02-13T18:27:31.982Z,17.60
2023-02-13T18:30:08.561Z,18.30
2023-02-13T18:32:43.707Z,22.00
2023-02-13T18:35:19.169Z,23.40
2023-02-13T18:37:53.039Z,22.80
2023-02-13T18:40:28.392Z,20.10
2023-02-13T18:43:01.204Z,21.80
2023-02-13T18:45:37.619Z,21.50
2023-02-13T18:48:13.952Z,23.50
2023-02-13T18:50:45.116Z,20.80
2023-02-13T18:53:16.270Z,22.20
2023-02-13T18:55:47.559Z,21.80
2023-02-13T18:58:19.582Z,21.60
2023-02-13T19:00:51.163Z,22.90
2023-02-13T19:03:26.992Z,20.00
2023-02-13T19:05:59.295Z,21.60
2023-02-13T19:08:30.295Z,25.20
2023-02-13T19:11:11.074Z,23.20
2023-02-13T19:13:42.618Z,25.50
2023-02-13T19:16:15.628Z,22.40
2023-02-13T19:18:53.536Z,24.30
2023-02-13T19:21:25.099Z,21.60
2023-02-13T19:23:56.587Z,21.60
2023-02-13T19:26:31.477Z,19.80
2023-02-13T19:29:16.972Z,19.20
2023-02-13T19:31:57.738Z,17.90
2023-02-13T19:34:29.127Z,18.30
2023-02-13T19:37:00.093Z,19.20
2023-02-13T19:39:31.287Z,17.90
2023-02-13T19:42:02.296Z,19.60
2023-02-13T19:44:33.534Z,21.00
2023-02-13T19:47:04.579Z,21.50
2023-02-13T19:49:44.540Z,20.30
2023-02-13T19:52:15.878Z,24.10
2023-02-13T19:54:46.714Z,20.80
2023-02-13T19:57:18.680Z,20.20
2023-02-13T19:59:50.017Z,20.90
2023-02-13T20:02:25.310Z,23.70
2023-02-13T20:04:56.812Z,20.70
2023-02-13T20:07:31.743Z,23.00
2023-02-13T20:10:08.725Z,21.00
2023-02-13T20:12:43.863Z,22.10
2023-02-13T20:15:15.317Z,21.60
2023-02-13T20:17:46.242Z,23.20
2023-02-13T20:20:17.793Z,27.00
2023-02-13T20:22:49.302Z,29.40
2023-02-13T20:25:29.567Z,22.90
2023-02-13T20:28:00.748Z,22.70
2023-02-13T20:30:31.598Z,27.60
2023-02-13T20:33:08.050Z,21.00
2023-02-13T20:35:43.746Z,23.10
2023-02-13T20:38:20.269Z,25.10
2023-02-13T20:40:55.600Z,28.50
2023-02-13T20:43:33.404Z,27.10
2023-02-13T20:46:04.461Z,20.60
2023-02-13T20:48:36.552Z,24.50
2023-02-13T20:51:08.813Z,20.90
2023-02-13T20:53:40.409Z,25.50
2023-02-13T20:56:17.024Z,23.90
2023-02-13T20:58:58.422Z,18.50
2023-02-13T21:01:35.170Z,22.60
2023-02-13T21:04:06.393Z,23.00
2023-02-13T21:06:38.484Z,21.80
2023-02-13T21:09:09.919Z,20.40
2023-02-13T21:11:41.581Z,23.20
2023-02-13T21:14:17.119Z,23.70
2023-02-13T21:16:48.505Z,26.80
2023-02-13T21:19:23.421Z,26.30
2023-02-13T21:22:11.236Z,26.10
2023-02-13T21:24:43.157Z,24.90
2023-02-13T21:27:13.827Z,26.30
2023-02-13T21:29:45.478Z,29.30
2023-02-13T21:32:16.298Z,31.10
2023-02-13T21:34:47.359Z,29.30
2023-02-13T21:37:18.195Z,26.60
2023-02-13T21:39:50.510Z,32.10
2023-02-13T21:42:21.358Z,26.00
2023-02-13T21:44:52.549Z,30.90
2023-02-13T21:47:23.336Z,32.80
2023-02-13T21:49:54.429Z,30.40
2023-02-13T21:52:25.317Z,29.70
2023-02-13T21:54:56.402Z,31.90
2023-02-13T21:57:27.075Z,33.10
2023-02-13T21:59:57.975Z,35.70
2023-02-13T22:02:29.496Z,31.10
2023-02-13T22:05:00.978Z,31.60
2023-02-13T22:07:31.712Z,36.00
2023-02-13T22:10:02.440Z,36.90
2023-02-13T22:12:33.178Z,36.40
2023-02-13T22:15:04.725Z,42.60
2023-02-13T22:17:37.219Z,34.00
2023-02-13T22:20:09.544Z,35.70
2023-02-13T22:22:40.254Z,37.20
2023-02-13T22:25:11.916Z,37.60
2023-02-13T22:27:46.354Z,31.00
2023-02-13T22:30:17.666Z,38.00
2023-02-13T22:32:48.373Z,36.00
2023-02-13T22:35:19.614Z,33.10
2023-02-13T22:37:50.454Z,33.70
2023-02-13T22:40:21.936Z,40.00
2023-02-13T22:42:54.069Z,37.80
2023-02-13T22:45:25.201Z,33.60
2023-02-13T22:47:55.955Z,35.20
2023-02-13T22:50:26.972Z,35.20
2023-02-13T22:52:57.907Z,36.20
2023-02-13T22:55:28.853Z,39.70
2023-02-13T22:57:59.577Z,38.00
2023-02-13T23:00:30.873Z,40.00
2023-02-13T23:03:01.354Z,34.00
2023-02-13T23:05:32.595Z,39.30
2023-02-13T23:08:03.426Z,40.10
2023-02-13T23:10:34.564Z,38.80
2023-02-13T23:13:07.587Z,37.10
2023-02-13T23:15:38.880Z,36.80
2023-02-13T23:18:15.188Z,40.60
2023-02-13T23:20:46.338Z,37.80
2023-02-13T23:23:17.202Z,36.00
2023-02-13T23:25:47.978Z,34.70
2023-02-13T23:28:18.606Z,36.40
2023-02-13T23:30:49.861Z,35.70
2023-02-13T23:33:20.640Z,36.10
2023-02-13T23:35:51.725Z,35.30
2023-02-13T23:38:22.288Z,45.00
2023-02-13T23:40:53.256Z,37.40
2023-02-13T23:43:23.931Z,35.50
2023-02-13T23:45:55.342Z,42.30
2023-02-13T23:48:26.037Z,38.30
2023-02-13T23:50:57.272Z,39.40
2023-02-13T23:53:28.411Z,40.40
2023-02-13T23:55:59.463Z,38.20
2023-02-13T23:58:30.171Z,38.50
